createdAt,value
2019-02-20T00:01:25.686Z,13.27
2019-02-20T00:03:54.972Z,12.50
2019-02-20T00:06:24.346Z,13.30
2019-02-20T00:08:53.689Z,12.07
2019-02-20T00:11:23.006Z,16.47
2019-02-20T00:13:52.302Z,18.90
2019-02-20T00:16:21.625Z,13.03
2019-02-20T00:18:50.929Z,14.00
2019-02-20T00:21:21.218Z,21.30
2019-02-20T00:23:50.583Z,17.03
2019-02-20T00:26:19.912Z,15.63
2019-02-20T00:28:49.219Z,13.00
2019-02-20T00:31:18.585Z,12.40
2019-02-20T00:33:47.936Z,12.47
2019-02-20T00:36:17.214Z,17.60
2019-02-20T00:38:48.390Z,12.83
2019-02-20T00:41:17.690Z,14.90
2019-02-20T00:44:14.799Z,15.73
2019-02-20T00:47:02.447Z,11.27
2019-02-20T00:49:36.285Z,17.33
2019-02-20T00:52:17.447Z,15.13
2019-02-20T00:54:46.757Z,12.87
2019-02-20T00:57:16.072Z,10.70
2019-02-20T00:59:45.383Z,15.07
2019-02-20T01:02:14.703Z,15.30
2019-02-20T01:04:43.997Z,9.67
2019-02-20T01:07:13.354Z,14.47
2019-02-20T01:09:42.635Z,13.17
2019-02-20T01:12:12.054Z,11.87
2019-02-20T01:14:41.344Z,16.27
2019-02-20T01:17:10.673Z,12.47
2019-02-20T01:19:39.978Z,11.07
2019-02-20T01:22:09.292Z,10.40
2019-02-20T01:24:38.573Z,11.40
2019-02-20T01:27:07.945Z,12.27
2019-02-20T01:29:37.278Z,11.93
2019-02-20T01:32:06.626Z,10.43
2019-02-20T01:34:35.942Z,15.20
2019-02-20T01:37:05.323Z,6.90
2019-02-20T01:39:34.655Z,9.70
2019-02-20T01:42:03.946Z,9.13
2019-02-20T01:44:33.355Z,11.50
2019-02-20T01:47:02.706Z,11.83
2019-02-20T01:49:32.021Z,10.73
2019-02-20T01:52:01.329Z,14.50
2019-02-20T01:54:30.682Z,13.53
2019-02-20T01:57:00.016Z,11.77
2019-02-20T01:59:29.590Z,11.10
2019-02-20T02:01:58.925Z,11.23
2019-02-20T02:04:28.238Z,10.33
2019-02-20T02:06:57.503Z,8.47
2019-02-20T02:09:26.858Z,11.87
2019-02-20T02:11:56.158Z,11.17
2019-02-20T02:14:25.493Z,11.00
2019-02-20T02:16:54.827Z,7.93
2019-02-20T02:19:24.166Z,6.07
2019-02-20T02:21:53.465Z,10.77
2019-02-20T02:24:22.798Z,10.50
2019-02-20T02:26:52.123Z,12.37
2019-02-20T02:29:21.489Z,12.93
2019-02-20T02:31:50.814Z,6.93
2019-02-20T02:34:20.113Z,11.80
2019-02-20T02:36:49.419Z,7.37
2019-02-20T02:39:18.762Z,10.53
2019-02-20T02:41:48.079Z,14.13
2019-02-20T02:44:17.436Z,11.57
2019-02-20T02:46:46.754Z,14.97
2019-02-20T02:49:16.078Z,6.50
2019-02-20T02:51:45.423Z,9.03
2019-02-20T02:54:14.847Z,11.83
2019-02-20T02:56:44.159Z,17.37
2019-02-20T02:59:13.478Z,12.93
2019-02-20T03:01:42.795Z,11.17
2019-02-20T03:04:12.328Z,14.47
2019-02-20T03:06:41.730Z,14.87
2019-02-20T03:09:10.958Z,13.13
2019-02-20T03:11:40.251Z,11.60
2019-02-20T03:14:09.551Z,13.03
2019-02-20T03:16:38.898Z,7.23
2019-02-20T03:19:08.177Z,10.37
2019-02-20T03:21:37.546Z,9.40
2019-02-20T03:24:06.899Z,11.13
2019-02-20T03:26:36.189Z,14.03
2019-02-20T03:29:05.474Z,10.87
2019-02-20T03:31:34.828Z,13.53
2019-02-20T03:34:04.155Z,10.13
2019-02-20T03:36:33.489Z,11.50
2019-02-20T03:39:03.235Z,14.00
2019-02-20T03:41:32.587Z,12.17
2019-02-20T03:44:01.891Z,11.90
2019-02-20T03:46:31.203Z,10.67
2019-02-20T03:49:00.532Z,11.70
2019-02-20T03:51:29.882Z,14.13
2019-02-20T03:53:59.212Z,10.53
2019-02-20T03:56:28.500Z,10.27
2019-02-20T03:58:57.826Z,10.63
2019-02-20T04:01:27.150Z,12.17
2019-02-20T04:03:56.479Z,12.17
2019-02-20T04:06:25.841Z,15.17
2019-02-20T04:08:55.139Z,9.00
2019-02-20T04:11:24.520Z,16.40
2019-02-20T04:13:53.842Z,10.77
2019-02-20T04:16:23.126Z,15.30
2019-02-20T04:18:52.463Z,15.63
2019-02-20T04:21:21.771Z,15.73
2019-02-20T04:24:01.662Z,14.37
2019-02-20T04:26:22.047Z,9.20
2019-02-20T04:28:53.386Z,20.83
2019-02-20T04:31:22.786Z,12.90
2019-02-20T04:33:52.067Z,13.97
2019-02-20T04:36:21.364Z,12.20
2019-02-20T04:38:50.709Z,11.33
2019-02-20T04:41:20.016Z,12.63
2019-02-20T04:43:49.447Z,14.70
2019-02-20T04:46:18.750Z,12.93
2019-02-20T04:48:48.036Z,16.73
2019-02-20T04:51:17.380Z,13.13
2019-02-20T04:53:46.693Z,19.03
2019-02-20T04:56:16.015Z,12.33
2019-02-20T04:58:46.566Z,16.77
2019-02-20T05:01:15.923Z,13.23
2019-02-20T05:03:45.240Z,17.40
2019-02-20T05:06:14.590Z,14.47
2019-02-20T05:08:43.879Z,18.83
2019-02-20T05:11:13.233Z,15.27
2019-02-20T05:13:42.594Z,16.37
2019-02-20T05:16:11.889Z,19.73
2019-02-20T05:18:41.245Z,22.67
2019-02-20T05:21:10.538Z,13.43
2019-02-20T05:23:39.872Z,10.83
2019-02-20T05:26:09.241Z,19.77
2019-02-20T05:28:38.524Z,17.87
2019-02-20T05:31:07.863Z,14.40
2019-02-20T05:33:37.202Z,15.03
2019-02-20T05:36:06.491Z,16.33
2019-02-20T05:38:35.798Z,17.00
2019-02-20T05:41:05.170Z,18.30
2019-02-20T05:43:34.538Z,14.53
2019-02-20T05:46:03.836Z,20.97
2019-02-20T05:48:33.182Z,14.07
2019-02-20T05:51:02.605Z,10.90
2019-02-20T05:53:31.967Z,19.17
2019-02-20T05:56:01.249Z,19.80
2019-02-20T05:58:30.583Z,13.20
2019-02-20T06:00:59.887Z,22.83
2019-02-20T06:03:29.239Z,21.00
2019-02-20T06:05:58.608Z,12.07
2019-02-20T06:08:28.005Z,17.20
2019-02-20T06:10:57.320Z,13.50
2019-02-20T06:13:26.631Z,17.00
2019-02-20T06:15:55.945Z,26.63
2019-02-20T06:18:26.305Z,20.73
2019-02-20T06:20:55.619Z,13.30
2019-02-20T06:23:24.947Z,14.87
2019-02-20T06:25:54.263Z,20.37
2019-02-20T06:28:23.594Z,12.10
2019-02-20T06:30:52.915Z,17.20
2019-02-20T06:33:22.265Z,19.40
2019-02-20T06:35:51.557Z,17.40
2019-02-20T06:38:20.888Z,12.57
2019-02-20T06:40:50.202Z,13.27
2019-02-20T06:43:19.525Z,14.90
2019-02-20T06:45:50.006Z,18.43
2019-02-20T06:48:19.326Z,22.43
2019-02-20T06:50:48.618Z,16.43
2019-02-20T06:53:18.002Z,20.73
2019-02-20T06:55:49.671Z,12.20
2019-02-20T06:58:19.093Z,18.03
2019-02-20T07:00:48.428Z,15.13
2019-02-20T07:03:17.783Z,19.57
2019-02-20T07:06:18.804Z,15.23
2019-02-20T07:09:37.525Z,10.63
2019-02-20T07:12:24.074Z,16.57
2019-02-20T07:15:17.719Z,18.70
2019-02-20T07:18:19.401Z,11.30
2019-02-20T07:21:45.146Z,14.10
2019-02-20T07:24:25.715Z,15.00
2019-02-20T07:27:37.390Z,21.50
2019-02-20T07:30:09.019Z,27.17
2019-02-20T07:32:38.342Z,14.90
2019-02-20T07:35:09.776Z,20.30
2019-02-20T07:37:39.120Z,16.53
2019-02-20T07:40:10.746Z,21.83
2019-02-20T07:42:40.595Z,20.07
2019-02-20T07:45:12.243Z,19.80
2019-02-20T07:47:41.551Z,19.73
2019-02-20T07:50:12.940Z,14.50
2019-02-20T07:52:42.238Z,20.70
2019-02-20T07:55:13.689Z,18.30
2019-02-20T07:57:42.523Z,24.20
2019-02-20T08:00:12.820Z,22.40
2019-02-20T08:02:42.193Z,22.00
2019-02-20T08:05:11.590Z,15.83
2019-02-20T08:07:40.899Z,20.63
2019-02-20T08:10:11.429Z,23.57
2019-02-20T08:12:40.709Z,16.80
2019-02-20T08:15:11.488Z,19.43
2019-02-20T08:17:40.868Z,23.27
2019-02-20T08:20:11.232Z,21.67
2019-02-20T08:22:40.574Z,13.83
2019-02-20T08:25:09.838Z,15.73
2019-02-20T08:27:39.172Z,25.07
2019-02-20T08:30:11.641Z,19.27
2019-02-20T08:32:40.940Z,23.73
2019-02-20T08:35:10.691Z,21.80
2019-02-20T08:37:40.038Z,19.37
2019-02-20T08:40:11.762Z,20.03
2019-02-20T08:42:41.094Z,14.60
2019-02-20T08:45:10.654Z,20.77
2019-02-20T08:47:39.959Z,19.50
2019-02-20T08:50:10.109Z,16.50
2019-02-20T08:52:39.402Z,14.43
2019-02-20T08:55:09.102Z,21.53
2019-02-20T08:57:38.441Z,22.73
2019-02-20T09:00:10.063Z,22.30
2019-02-20T09:02:39.365Z,18.40
2019-02-20T09:05:08.997Z,26.20
2019-02-20T09:07:38.311Z,20.63
2019-02-20T09:10:08.022Z,20.87
2019-02-20T09:12:37.298Z,27.03
2019-02-20T09:15:07.234Z,10.87
2019-02-20T09:17:36.582Z,19.57
2019-02-20T09:20:06.710Z,22.33
2019-02-20T09:22:36.092Z,18.67
2019-02-20T09:25:06.276Z,21.93
2019-02-20T09:27:36.617Z,21.70
2019-02-20T09:30:06.891Z,21.23
2019-02-20T09:32:36.236Z,25.00
2019-02-20T09:35:05.673Z,23.27
2019-02-20T09:37:35.093Z,26.80
2019-02-20T09:40:04.967Z,16.00
2019-02-20T09:42:34.371Z,15.87
2019-02-20T09:45:03.693Z,16.93
2019-02-20T09:47:33.074Z,17.37
2019-02-20T09:50:02.404Z,14.70
2019-02-20T09:52:31.741Z,25.43
2019-02-20T09:55:01.062Z,20.47
2019-02-20T09:57:30.378Z,20.60
2019-02-20T09:59:59.692Z,21.37
2019-02-20T10:02:29.069Z,18.27
2019-02-20T10:04:58.399Z,21.00
2019-02-20T10:07:27.746Z,13.27
2019-02-20T10:09:57.110Z,16.03
2019-02-20T10:12:26.420Z,20.17
2019-02-20T10:14:55.736Z,17.70
2019-02-20T10:17:25.082Z,23.90
2019-02-20T10:19:54.398Z,28.17
2019-02-20T10:22:23.779Z,18.10
2019-02-20T10:24:53.060Z,22.67
2019-02-20T10:27:22.421Z,23.40
2019-02-20T10:29:51.722Z,24.23
2019-02-20T10:32:21.094Z,20.67
2019-02-20T10:34:50.539Z,14.87
2019-02-20T10:37:19.915Z,21.93
2019-02-20T10:39:49.291Z,15.30
2019-02-20T10:42:18.587Z,19.17
2019-02-20T10:44:47.922Z,17.50
2019-02-20T10:47:17.283Z,20.73
2019-02-20T10:49:46.583Z,19.70
2019-02-20T10:52:15.897Z,18.93
2019-02-20T10:54:45.618Z,19.00
2019-02-20T10:57:14.922Z,19.07
2019-02-20T10:59:44.321Z,19.27
2019-02-20T11:02:14.262Z,21.53
2019-02-20T11:04:43.490Z,19.50
2019-02-20T11:07:12.841Z,9.07
2019-02-20T11:09:42.122Z,15.70
2019-02-20T11:12:11.481Z,20.80
2019-02-20T11:14:40.850Z,22.47
2019-02-20T11:17:10.171Z,20.17
2019-02-20T11:19:39.451Z,19.03
2019-02-20T11:22:08.874Z,14.60
2019-02-20T11:24:38.183Z,19.03
2019-02-20T11:27:07.475Z,24.23
2019-02-20T11:29:36.794Z,21.70
2019-02-20T11:32:06.183Z,14.40
2019-02-20T11:34:35.466Z,27.23
2019-02-20T11:37:04.834Z,13.30
2019-02-20T11:39:37.741Z,15.97
2019-02-20T11:42:05.238Z,19.50
2019-02-20T11:44:34.714Z,12.83
2019-02-20T11:47:03.984Z,22.50
2019-02-20T11:49:36.399Z,17.70
2019-02-20T11:52:05.711Z,14.38
2019-02-20T11:54:35.015Z,17.98
2019-02-20T11:57:04.370Z,16.80
2019-02-20T11:59:33.667Z,12.57
2019-02-20T12:02:03.026Z,19.90
2019-02-20T12:04:32.310Z,14.93
2019-02-20T12:07:01.651Z,11.67
2019-02-20T12:09:30.971Z,21.20
2019-02-20T12:12:00.331Z,16.35
2019-02-20T12:14:29.640Z,17.83
2019-02-20T12:16:58.994Z,13.75
2019-02-20T12:19:28.308Z,13.15
2019-02-20T12:21:57.612Z,18.50
2019-02-20T12:24:26.976Z,20.95
2019-02-20T12:26:56.345Z,14.70
2019-02-20T12:29:25.703Z,18.92
2019-02-20T12:31:55.058Z,18.82
2019-02-20T12:34:24.344Z,6.65
2019-02-20T12:36:53.686Z,12.03
2019-02-20T12:39:23.087Z,19.48
2019-02-20T12:41:52.456Z,19.00
2019-02-20T12:44:21.777Z,17.05
2019-02-20T12:46:51.131Z,18.45
2019-02-20T12:49:20.426Z,16.65
2019-02-20T12:51:49.742Z,19.05
2019-02-20T12:54:19.110Z,13.98
2019-02-20T12:56:48.431Z,13.00
2019-02-20T12:59:17.845Z,17.75
2019-02-20T13:01:47.181Z,12.95
2019-02-20T13:04:16.481Z,14.33
2019-02-20T13:06:45.809Z,15.03
2019-02-20T13:09:16.274Z,17.12
2019-02-20T13:11:45.603Z,14.80
2019-02-20T13:14:14.918Z,11.35
2019-02-20T13:16:44.250Z,22.77
2019-02-20T13:19:13.530Z,6.62
2019-02-20T13:21:42.874Z,11.93
2019-02-20T13:24:12.217Z,13.25
2019-02-20T13:26:41.486Z,18.55
2019-02-20T13:29:10.845Z,16.60
2019-02-20T13:31:40.134Z,18.45
2019-02-20T13:34:09.455Z,14.78
2019-02-20T13:36:38.782Z,18.67
2019-02-20T13:39:08.118Z,16.42
2019-02-20T13:41:37.446Z,6.85
2019-02-20T13:44:06.813Z,13.55
2019-02-20T13:46:36.137Z,8.30
2019-02-20T13:49:05.450Z,11.65
2019-02-20T13:51:35.059Z,13.70
2019-02-20T13:54:04.326Z,12.15
2019-02-20T13:56:33.665Z,10.88
2019-02-20T13:59:02.958Z,10.20
2019-02-20T14:01:32.303Z,12.28
2019-02-20T14:04:01.599Z,12.30
2019-02-20T14:06:31.313Z,13.83
2019-02-20T14:09:00.636Z,8.30
2019-02-20T14:11:29.934Z,7.72
2019-02-20T14:13:59.271Z,11.00
2019-02-20T14:16:28.569Z,13.60
2019-02-20T14:18:57.912Z,8.63
2019-02-20T14:21:27.202Z,9.15
2019-02-20T14:23:56.491Z,8.23
2019-02-20T14:26:25.794Z,7.40
2019-02-20T14:28:55.098Z,6.97
2019-02-20T14:31:24.384Z,12.05
2019-02-20T14:33:53.726Z,10.93
2019-02-20T14:36:23.117Z,8.78
2019-02-20T14:38:52.447Z,7.45
2019-02-20T14:41:21.773Z,7.62
2019-02-20T14:43:51.137Z,11.40
2019-02-20T14:46:20.422Z,5.50
2019-02-20T14:48:49.749Z,7.97
2019-02-20T14:51:19.059Z,11.22
2019-02-20T14:53:48.770Z,8.30
2019-02-20T14:56:18.090Z,9.73
2019-02-20T14:58:48.870Z,10.15
2019-02-20T15:01:18.242Z,11.28
2019-02-20T15:03:47.602Z,13.60
2019-02-20T15:06:16.916Z,10.72
2019-02-20T15:08:46.746Z,6.65
2019-02-20T15:11:16.064Z,11.50
2019-02-20T15:13:45.393Z,9.53
2019-02-20T15:16:14.701Z,8.23
2019-02-20T15:18:44.127Z,9.48
2019-02-20T15:21:13.402Z,6.47
2019-02-20T15:23:43.225Z,7.95
2019-02-20T15:26:12.682Z,5.00
2019-02-20T15:28:42.027Z,6.12
2019-02-20T15:31:11.346Z,9.50
2019-02-20T15:33:40.813Z,8.40
2019-02-20T15:36:10.139Z,7.97
2019-02-20T15:38:39.581Z,11.18
2019-02-20T15:41:08.934Z,6.67
2019-02-20T15:43:38.275Z,11.35
2019-02-20T15:46:07.649Z,9.58
2019-02-20T15:48:37.015Z,11.20
2019-02-20T15:51:06.398Z,7.58
2019-02-20T15:53:35.674Z,9.68
2019-02-20T15:56:04.998Z,10.23
2019-02-20T15:58:34.302Z,8.15
2019-02-20T16:01:05.680Z,9.60
2019-02-20T16:03:35.202Z,5.25
2019-02-20T16:06:04.621Z,6.47
2019-02-20T16:08:33.979Z,7.83
2019-02-20T16:11:03.718Z,6.10
2019-02-20T16:13:33.117Z,8.57
2019-02-20T16:16:02.570Z,9.98
2019-02-20T16:18:31.892Z,8.03
2019-02-20T16:21:01.228Z,10.08
2019-02-20T16:23:30.578Z,5.90
2019-02-20T16:26:02.125Z,8.63
2019-02-20T16:28:33.784Z,5.00
2019-02-20T16:31:02.475Z,5.60
2019-02-20T16:33:31.841Z,6.87
2019-02-20T16:36:01.147Z,5.67
2019-02-20T16:38:30.538Z,6.10
2019-02-20T16:41:00.347Z,7.20
2019-02-20T16:43:29.643Z,8.37
2019-02-20T16:45:58.929Z,5.83
2019-02-20T16:48:28.238Z,9.73
2019-02-20T16:50:57.591Z,11.40
2019-02-20T16:53:27.276Z,9.13
2019-02-20T16:55:56.921Z,9.23
2019-02-20T16:58:26.246Z,7.20
2019-02-20T17:00:55.551Z,5.63
2019-02-20T17:03:24.862Z,11.97
2019-02-20T17:05:54.144Z,6.57
2019-02-20T17:08:23.470Z,13.43
2019-02-20T17:10:52.780Z,9.73
2019-02-20T17:13:22.157Z,8.23
2019-02-20T17:15:51.581Z,12.07
2019-02-20T17:18:20.881Z,12.80
2019-02-20T17:20:50.371Z,8.43
2019-02-20T17:23:19.749Z,9.40
2019-02-20T17:25:49.130Z,6.47
2019-02-20T17:28:18.487Z,8.00
2019-02-20T17:30:47.840Z,11.67
2019-02-20T17:33:17.159Z,8.20
2019-02-20T17:35:46.500Z,8.30
2019-02-20T17:38:15.852Z,10.90
2019-02-20T17:40:45.201Z,13.10
2019-02-20T17:43:15.699Z,8.57
2019-02-20T17:45:45.042Z,9.13
2019-02-20T17:48:14.483Z,7.37
2019-02-20T17:50:43.878Z,11.43
2019-02-20T17:53:13.271Z,9.30
2019-02-20T17:55:42.838Z,11.00
2019-02-20T17:58:15.088Z,8.07
2019-02-20T18:00:43.511Z,8.70
2019-02-20T18:03:12.870Z,8.47
2019-02-20T18:05:42.225Z,9.83
2019-02-20T18:08:11.572Z,8.63
2019-02-20T18:10:41.015Z,9.30
2019-02-20T18:13:10.357Z,7.40
2019-02-20T18:15:40.357Z,8.97
2019-02-20T18:18:10.944Z,8.00
2019-02-20T18:20:40.327Z,10.00
2019-02-20T18:23:09.756Z,10.33
2019-02-20T18:25:39.055Z,9.60
2019-02-20T18:28:08.466Z,13.00
2019-02-20T18:30:37.845Z,8.00
2019-02-20T18:33:07.189Z,10.97
2019-02-20T18:35:36.546Z,11.20
2019-02-20T18:38:05.851Z,9.07
2019-02-20T18:40:35.332Z,10.77
2019-02-20T18:43:04.867Z,11.80
2019-02-20T18:45:34.199Z,12.37
2019-02-20T18:48:03.554Z,11.37
2019-02-20T18:50:32.971Z,11.87
2019-02-20T18:53:02.263Z,10.77
2019-02-20T18:55:31.589Z,7.87
2019-02-20T18:58:01.057Z,12.40
2019-02-20T19:00:30.434Z,10.63
2019-02-20T19:03:00.113Z,16.87
2019-02-20T19:05:29.616Z,12.80
2019-02-20T19:07:59.001Z,11.33
2019-02-20T19:10:32.619Z,11.90
2019-02-20T19:13:39.973Z,12.83
2019-02-20T19:16:45.276Z,12.23
2019-02-20T19:19:38.850Z,12.60
2019-02-20T19:22:55.151Z,17.20
2019-02-20T19:26:17.705Z,13.27
2019-02-20T19:29:16.580Z,12.60
2019-02-20T19:32:08.680Z,14.57
2019-02-20T19:35:18.928Z,13.17
2019-02-20T19:38:25.760Z,14.63
2019-02-20T19:41:24.074Z,21.67
2019-02-20T19:44:22.117Z,12.83
2019-02-20T19:47:27.631Z,16.80
2019-02-20T19:50:56.738Z,21.27
2019-02-20T19:54:04.655Z,16.87
2019-02-20T19:57:15.494Z,19.83
2019-02-20T20:00:17.168Z,14.60
2019-02-20T20:03:03.089Z,19.27
2019-02-20T20:05:56.468Z,19.33
2019-02-20T20:08:44.023Z,20.07
2019-02-20T20:12:06.593Z,16.63
2019-02-20T20:15:29.548Z,18.07
2019-02-20T20:18:33.338Z,22.60
2019-02-20T20:21:49.211Z,21.00
2019-02-20T20:24:55.886Z,24.13
2019-02-20T20:27:57.878Z,21.67
2019-02-20T20:31:17.509Z,17.13
2019-02-20T20:34:22.979Z,21.90
2019-02-20T20:37:38.540Z,20.37
2019-02-20T20:40:42.233Z,21.27
2019-02-20T20:44:00.730Z,18.33
2019-02-20T20:47:10.582Z,24.43
2019-02-20T20:50:12.390Z,21.83
2019-02-20T20:52:48.200Z,16.50
2019-02-20T20:56:00.986Z,17.40
2019-02-20T20:59:04.737Z,17.53
2019-02-20T21:02:13.564Z,18.20
2019-02-20T21:05:24.389Z,18.93
2019-02-20T21:08:20.638Z,16.70
2019-02-20T21:11:33.975Z,20.30
2019-02-20T21:14:49.828Z,20.83
2019-02-20T21:18:06.240Z,19.07
2019-02-20T21:21:32.352Z,17.83
2019-02-20T21:24:33.931Z,18.23
2019-02-20T21:27:42.427Z,23.23
2019-02-20T21:30:48.223Z,21.73
2019-02-20T21:33:54.458Z,23.80
2019-02-20T21:36:53.784Z,24.23
2019-02-20T21:40:10.068Z,19.60
2019-02-20T21:42:48.266Z,19.50
2019-02-20T21:45:51.911Z,17.97
2019-02-20T21:49:02.572Z,23.83
2019-02-20T21:52:18.524Z,21.63
2019-02-20T21:55:10.751Z,17.07
2019-02-20T21:58:04.207Z,16.73
2019-02-20T22:01:03.481Z,19.30
2019-02-20T22:04:07.135Z,16.73
2019-02-20T22:07:08.032Z,13.80
2019-02-20T22:10:09.176Z,16.27
2019-02-20T22:13:30.339Z,16.33
2019-02-20T22:16:56.387Z,17.93
2019-02-20T22:20:15.691Z,18.17
2019-02-20T22:23:09.647Z,14.10
2019-02-20T22:25:51.382Z,15.67
2019-02-20T22:28:55.169Z,21.23
2019-02-20T22:31:36.981Z,19.53
2019-02-20T22:34:41.647Z,18.17
2019-02-20T22:37:51.544Z,19.20
2019-02-20T22:40:51.331Z,20.63
2019-02-20T22:44:26.317Z,18.63
2019-02-20T22:47:06.555Z,16.83
2019-02-20T22:50:07.010Z,20.03
2019-02-20T22:52:55.219Z,17.87
2019-02-20T22:56:18.133Z,18.67
2019-02-20T22:59:25.309Z,18.27
2019-02-20T23:02:26.958Z,17.90
2019-02-20T23:05:32.967Z,18.53
2019-02-20T23:08:28.671Z,22.00
2019-02-20T23:11:41.472Z,18.07
2019-02-20T23:14:38.688Z,20.67
2019-02-20T23:17:07.994Z,19.70
2019-02-20T23:19:37.345Z,21.03
2019-02-20T23:22:06.699Z,17.77
2019-02-20T23:24:36.006Z,19.40
2019-02-20T23:27:05.328Z,19.87
2019-02-20T23:29:34.651Z,17.97
2019-02-20T23:32:05.092Z,18.90
2019-02-20T23:34:34.379Z,18.67
2019-02-20T23:37:03.714Z,17.57
2019-02-20T23:39:33.017Z,18.77
2019-02-20T23:42:02.353Z,18.67
2019-02-20T23:44:31.651Z,19.73
2019-02-20T23:47:00.994Z,20.57
2019-02-20T23:49:30.260Z,18.43
2019-02-20T23:51:59.597Z,19.73
2019-02-20T23:54:28.865Z,22.63
2019-02-20T23:56:58.195Z,19.47
2019-02-20T23:59:27.571Z,16.50
